Time;durP1;ratioP1;P1;durP2;ratioP2;P2;SDS_P1;SDS_P2;PMS_P1;PMS_P2;Temp;Humidity;BMP_temperature;BMP_pressure;BME280_temperature;BME280_humidity;BME280_pressure;Samples;Min_cycle;Max_cycle;Signal;HPM_P1;HPM_P2
2023/03/08 00:00:15;;;;;;;9.55;3.63;;;;;;;3.53;90.90;96606.03;2552469;28;20047;-83
2023/03/08 00:01:50;;;;;;;7.03;3.90;;;;;;;3.73;90.41;96617.56;2550671;29;20067;-83
2023/03/08 00:03:06;;;;;;;5.60;3.35;;;;;;;3.76;90.38;96612.28;2550732;29;20063;-83
2023/03/08 00:04:21;;;;;;;6.93;3.78;;;;;;;3.55;91.41;96618.94;2551645;29;20047;-83
2023/03/08 00:05:37;;;;;;;6.57;3.00;;;;;;;3.49;95.30;96612.22;2553066;29;20070;-82
2023/03/08 00:06:53;;;;;;;6.85;3.55;;;;;;;3.59;95.34;96607.59;2551139;28;20051;-82
2023/03/08 00:08:09;;;;;;;5.55;3.45;;;;;;;3.61;95.72;96613.56;2541146;29;20785;-84
2023/03/08 00:09:25;;;;;;;9.32;3.67;;;;;;;3.78;93.80;96610.50;2545542;29;20052;-82
2023/03/08 00:10:40;;;;;;;8.43;3.72;;;;;;;3.66;94.91;96616.91;2551247;29;20066;-82
2023/03/08 00:11:56;;;;;;;13.18;3.60;;;;;;;3.47;97.58;96614.00;2552572;29;20078;-82
2023/03/08 00:13:12;;;;;;;6.13;3.72;;;;;;;3.49;98.44;96619.97;2551983;29;20569;-83
2023/03/08 00:14:27;;;;;;;9.55;4.10;;;;;;;3.56;97.28;96624.06;2553107;29;20043;-82
2023/03/08 00:15:43;;;;;;;6.15;3.35;;;;;;;3.65;97.34;96622.97;2550608;28;20051;-82
2023/03/08 00:16:59;;;;;;;5.32;2.63;;;;;;;3.41;99.19;96625.38;2551130;29;20409;-83
2023/03/08 00:18:14;;;;;;;7.53;3.35;;;;;;;3.48;99.62;96618.28;2553468;29;20047;-83
2023/03/08 00:19:30;;;;;;;6.35;3.63;;;;;;;3.45;100.00;96619.22;2552955;29;20056;-83
2023/03/08 00:20:45;;;;;;;7.95;3.50;;;;;;;3.65;98.67;96626.38;2551166;28;20086;-83
2023/03/08 00:22:01;;;;;;;7.60;3.42;;;;;;;3.64;99.07;96624.69;2552424;29;20529;-84
2023/03/08 00:23:16;;;;;;;6.70;2.90;;;;;;;3.63;97.98;96627.31;2541554;29;20055;-84
2023/03/08 00:24:32;;;;;;;5.93;3.42;;;;;;;3.62;98.80;96626.47;2544233;29;20649;-83
2023/03/08 00:25:52;;;;;;;6.97;3.45;;;;;;;3.50;100.00;96638.06;2551786;29;20052;-83
2023/03/08 00:27:07;;;;;;;6.30;3.17;;;;;;;3.68;98.82;96638.41;2552912;29;20055;-82
2023/03/08 00:28:24;;;;;;;6.07;3.25;;;;;;;3.54;99.03;96641.38;2550646;29;20479;-83
2023/03/08 00:29:39;;;;;;;7.65;3.10;;;;;;;3.64;99.94;96647.16;2551421;29;20101;-83
2023/03/08 00:31:08;;;;;;;8.45;3.95;;;;;;;3.64;100.00;96645.41;2551621;29;20066;-83
2023/03/08 00:32:25;;;;;;;7.03;3.78;;;;;;;3.72;99.78;96644.34;2552037;29;20048;-83
2023/03/08 00:33:41;;;;;;;8.38;3.53;;;;;;;3.60;100.00;96650.69;2553152;29;20060;-83
2023/03/08 00:34:56;;;;;;;6.25;3.33;;;;;;;3.55;100.00;96650.84;2550854;29;20125;-84
2023/03/08 00:36:15;;;;;;;7.45;3.83;;;;;;;3.68;100.00;96646.16;2551646;29;20047;-84
2023/03/08 00:37:31;;;;;;;7.78;3.95;;;;;;;3.52;100.00;96641.44;2549901;29;20513;-84
2023/03/08 00:38:49;;;;;;;6.43;4.28;;;;;;;3.62;100.00;96652.38;2541166;29;20095;-82
2023/03/08 00:40:05;;;;;;;5.70;2.83;;;;;;;3.70;100.00;96652.13;2546994;29;20047;-83
2023/03/08 00:41:21;;;;;;;5.00;3.00;;;;;;;3.68;100.00;96649.59;2550514;29;20052;-83
2023/03/08 00:42:37;;;;;;;8.50;3.25;;;;;;;3.66;100.00;96647.94;2552070;29;20139;-82
2023/03/08 00:43:52;;;;;;;5.78;2.88;;;;;;;3.56;100.00;96646.50;2553495;29;20382;-85
2023/03/08 00:45:09;;;;;;;7.45;3.88;;;;;;;3.62;100.00;96654.09;2550290;29;20102;-82
2023/03/08 00:46:25;;;;;;;11.23;4.38;;;;;;;3.64;100.00;96649.75;2551760;29;20415;-83
2023/03/08 00:47:41;;;;;;;9.75;4.30;;;;;;;3.92;100.00;96651.50;2551842;29;20052;-83
2023/03/08 00:48:57;;;;;;;7.75;3.42;;;;;;;3.77;100.00;96645.91;2551155;29;20642;-81
2023/03/08 00:50:13;;;;;;;6.40;3.30;;;;;;;3.81;100.00;96654.41;2551629;29;20134;-83
2023/03/08 00:51:28;;;;;;;8.10;3.97;;;;;;;3.81;100.00;96651.81;2552545;29;20454;-82
2023/03/08 00:52:44;;;;;;;8.48;4.70;;;;;;;3.62;100.00;96652.38;2551168;29;20058;-83
2023/03/08 00:54:00;;;;;;;9.43;4.55;;;;;;;3.77;100.00;96653.66;2550371;28;20051;-83
2023/03/08 00:55:15;;;;;;;6.35;3.50;;;;;;;3.87;100.00;96651.66;2551681;29;20422;-83
2023/03/08 00:56:31;;;;;;;4.57;3.08;;;;;;;3.85;100.00;96653.44;2551974;28;20051;-83
2023/03/08 00:57:46;;;;;;;6.70;3.60;;;;;;;4.04;100.00;96648.53;2552599;29;20051;-83
2023/03/08 00:59:02;;;;;;;7.10;3.50;;;;;;;3.89;100.00;96654.16;2550915;29;20051;-82
2023/03/08 01:00:18;;;;;;;6.05;3.60;;;;;;;3.86;100.00;96655.13;2551020;29;20092;-86
2023/03/08 01:01:33;;;;;;;9.88;3.67;;;;;;;3.97;100.00;96649.63;2552650;29;20048;-83
2023/03/08 01:02:49;;;;;;;6.68;3.75;;;;;;;3.94;100.00;96649.72;2551436;29;20080;-82
2023/03/08 01:04:05;;;;;;;5.95;2.83;;;;;;;3.95;100.00;96656.59;2550085;29;20431;-83
2023/03/08 01:05:21;;;;;;;7.65;4.10;;;;;;;3.94;100.00;96658.31;2550576;29;20139;-83
2023/03/08 01:06:37;;;;;;;8.23;3.67;;;;;;;3.93;100.00;96651.44;2540316;29;20511;-82
2023/03/08 01:07:54;;;;;;;7.18;3.90;;;;;;;4.01;100.00;96648.63;2544918;29;20051;-84
2023/03/08 01:09:10;;;;;;;8.80;4.13;;;;;;;3.92;100.00;96649.75;2552136;29;20059;-83
2023/03/08 01:10:26;;;;;;;8.95;4.32;;;;;;;3.93;100.00;96666.97;2551150;29;20580;-82
2023/03/08 01:11:43;;;;;;;7.63;5.15;;;;;;;3.78;100.00;96660.53;2550449;29;20303;-82
2023/03/08 01:12:58;;;;;;;7.15;3.72;;;;;;;3.85;100.00;96673.28;2550806;29;20503;-83
2023/03/08 01:14:14;;;;;;;5.68;3.88;;;;;;;3.91;100.00;96658.41;2550742;29;20051;-83
2023/03/08 01:15:30;;;;;;;6.93;3.30;;;;;;;3.94;100.00;96667.84;2552320;29;20474;-82
2023/03/08 01:16:45;;;;;;;7.30;4.15;;;;;;;3.94;100.00;96665.25;2549938;29;20048;-83
2023/03/08 01:18:01;;;;;;;8.30;3.63;;;;;;;4.10;100.00;96663.88;2550918;29;20044;-82
2023/03/08 01:19:16;;;;;;;6.10;3.47;;;;;;;3.95;100.00;96664.34;2551301;29;20048;-82
2023/03/08 01:20:32;;;;;;;6.22;4.07;;;;;;;3.92;100.00;96664.47;2551398;29;20055;-87
2023/03/08 01:21:48;;;;;;;6.28;3.17;;;;;;;4.05;100.00;96652.84;2550581;29;20159;-82
2023/03/08 01:23:03;;;;;;;7.38;4.03;;;;;;;4.05;100.00;96651.97;2550439;29;20078;-82
2023/03/08 01:24:20;;;;;;;6.65;3.05;;;;;;;3.90;100.00;96654.13;2550585;29;20052;-82
2023/03/08 01:25:35;;;;;;;8.48;4.15;;;;;;;4.00;100.00;96657.28;2551605;29;20055;-82
2023/03/08 01:26:54;;;;;;;9.45;4.00;;;;;;;4.01;100.00;96663.31;2550803;29;20554;-82
2023/03/08 01:28:10;;;;;;;6.13;3.72;;;;;;;4.06;100.00;96669.19;2549919;29;20131;-82
2023/03/08 01:29:27;;;;;;;10.35;3.45;;;;;;;4.09;100.00;96666.50;2552435;28;20115;-83
2023/03/08 01:30:42;;;;;;;8.23;4.28;;;;;;;4.09;100.00;96659.59;2551315;29;20051;-84
2023/03/08 01:31:57;;;;;;;7.43;3.90;;;;;;;4.22;100.00;96665.25;2550992;29;20051;-83
2023/03/08 01:33:13;;;;;;;6.13;3.28;;;;;;;4.12;100.00;96663.84;2550171;29;20062;-82
2023/03/08 01:34:29;;;;;;;7.68;4.43;;;;;;;4.14;100.00;96653.44;2550208;29;20048;-82
2023/03/08 01:35:44;;;;;;;5.93;3.10;;;;;;;4.22;100.00;96654.88;2550815;29;20052;-82
2023/03/08 01:37:00;;;;;;;7.70;3.53;;;;;;;4.15;100.00;96655.13;2550845;29;20054;-82
2023/03/08 01:38:16;;;;;;;7.78;4.13;;;;;;;4.23;100.00;96655.75;2552987;29;20052;-84
2023/03/08 01:39:31;;;;;;;8.18;4.47;;;;;;;4.37;100.00;96663.91;2550796;29;20062;-83
2023/03/08 01:40:47;;;;;;;10.40;3.78;;;;;;;4.20;100.00;96655.84;2551690;29;20351;-82
2023/03/08 01:42:06;;;;;;;5.93;3.38;;;;;;;4.23;100.00;96651.38;2551847;29;20494;-83
2023/03/08 01:43:29;;;;;;;6.93;3.58;;;;;;;4.26;100.00;96655.63;2550954;29;20409;-84
2023/03/08 01:45:02;;;;;;;5.70;3.38;;;;;;;4.25;100.00;96653.94;2550348;29;20083;-83
2023/03/08 01:46:29;;;;;;;5.53;2.92;;;;;;;4.19;100.00;96654.97;2552382;29;20103;-83
2023/03/08 01:47:45;;;;;;;8.95;4.75;;;;;;;4.18;100.00;96661.06;2550005;29;20078;-81
2023/03/08 01:49:24;;;;;;;6.00;3.33;;;;;;;4.21;100.00;96652.34;2552716;29;20538;-82
2023/03/08 01:50:41;;;;;;;5.80;2.90;;;;;;;4.11;100.00;96649.19;2549223;29;20059;-84
2023/03/08 01:52:05;;;;;;;5.72;3.58;;;;;;;4.28;100.00;96651.25;2549976;29;20058;-86
2023/03/08 01:53:21;;;;;;;9.98;4.10;;;;;;;4.16;100.00;96660.25;2550607;29;20525;-83
2023/03/08 01:54:46;;;;;;;11.27;4.32;;;;;;;4.13;100.00;96656.91;2549870;28;20554;-82
2023/03/08 01:56:05;;;;;;;5.30;3.08;;;;;;;4.32;100.00;96647.66;2550840;29;20071;-83
2023/03/08 01:57:37;;;;;;;6.30;3.63;;;;;;;4.22;100.00;96659.22;2551733;29;20509;-83
2023/03/08 01:58:53;;;;;;;7.15;3.55;;;;;;;4.24;100.00;96650.50;2550887;29;20073;-83
2023/03/08 02:00:16;;;;;;;6.35;3.15;;;;;;;4.28;100.00;96648.66;2551031;29;20056;-82
2023/03/08 02:01:32;;;;;;;;;;;;;;;4.23;100.00;96651.38;2551785;29;20079;-83
2023/03/08 02:02:50;;;;;;;6.60;3.58;;;;;;;4.15;100.00;96653.38;2551640;28;19926;-82
2023/03/08 02:04:08;;;;;;;7.32;3.70;;;;;;;4.25;100.00;96646.16;2550947;29;20051;-82
2023/03/08 02:05:25;;;;;;;7.50;3.75;;;;;;;4.33;100.00;96649.38;2551666;28;20193;-84
2023/03/08 02:06:41;;;;;;;10.20;3.65;;;;;;;4.12;100.00;96648.31;2552818;29;20138;-81
2023/03/08 02:07:57;;;;;;;6.63;3.30;;;;;;;4.19;100.00;96642.03;2551240;29;20498;-85
2023/03/08 02:09:13;;;;;;;7.90;3.40;;;;;;;4.24;100.00;96647.06;2550437;29;20070;-83
2023/03/08 02:10:29;;;;;;;6.75;4.03;;;;;;;4.18;100.00;96655.88;2551085;29;20090;-83
2023/03/08 02:11:45;;;;;;;4.72;2.80;;;;;;;4.22;100.00;96649.69;2550838;28;20074;-83
2023/03/08 02:13:05;;;;;;;6.82;3.42;;;;;;;4.24;100.00;96655.66;2550770;29;20200;-83
2023/03/08 02:14:20;;;;;;;5.82;3.60;;;;;;;4.32;100.00;96660.59;2549267;29;21081;-82
2023/03/08 02:15:36;;;;;;;7.45;4.20;;;;;;;4.31;100.00;96643.38;2550023;29;20062;-82
2023/03/08 02:16:52;;;;;;;6.32;3.67;;;;;;;4.27;100.00;96649.56;2552251;29;20063;-83
2023/03/08 02:18:08;;;;;;;7.85;3.80;;;;;;;4.25;100.00;96659.13;2551338;29;20411;-83
2023/03/08 02:19:45;;;;;;;9.05;4.20;;;;;;;4.43;100.00;96659.44;2551375;29;20174;-83
2023/03/08 02:21:00;;;;;;;6.90;2.83;;;;;;;4.48;100.00;96654.97;2552243;29;20109;-83
2023/03/08 02:22:16;;;;;;;6.28;2.83;;;;;;;4.41;100.00;96645.69;2550061;29;20138;-82
2023/03/08 02:23:32;;;;;;;7.05;4.03;;;;;;;4.41;100.00;96645.69;2550601;29;20090;-82
2023/03/08 02:24:47;;;;;;;9.52;3.47;;;;;;;4.24;100.00;96647.06;2551630;29;20640;-82
2023/03/08 02:26:04;;;;;;;6.63;3.58;;;;;;;4.38;100.00;96637.13;2550689;29;20102;-85
2023/03/08 02:27:24;;;;;;;6.43;3.15;;;;;;;4.19;100.00;96647.22;2551177;28;20150;-83
2023/03/08 02:28:40;;;;;;;5.45;3.17;;;;;;;4.06;100.00;96641.56;2550378;29;20370;-85
2023/03/08 02:29:56;;;;;;;7.93;3.45;;;;;;;4.24;100.00;96640.13;2541055;29;20448;-82
2023/03/08 02:31:13;;;;;;;6.53;3.08;;;;;;;4.24;100.00;96649.66;2544039;29;20758;-87
2023/03/08 02:32:28;;;;;;;7.43;4.32;;;;;;;4.11;100.00;96654.34;2549367;28;20075;-82
2023/03/08 02:33:44;;;;;;;5.60;2.85;;;;;;;4.19;100.00;96649.81;2550192;29;20110;-83
2023/03/08 02:35:00;;;;;;;7.53;3.83;;;;;;;4.18;100.00;96649.84;2551615;29;20047;-89
2023/03/08 02:36:16;;;;;;;7.10;3.38;;;;;;;4.20;100.00;96653.25;2551104;29;20130;-86
2023/03/08 02:37:33;;;;;;;5.38;3.30;;;;;;;4.13;100.00;96660.38;2550608;29;20086;-82
2023/03/08 02:38:48;;;;;;;7.78;3.70;;;;;;;4.14;100.00;96654.28;2551927;29;20149;-83
2023/03/08 02:40:05;;;;;;;7.25;2.90;;;;;;;4.24;100.00;96653.09;2549858;28;20204;-83
2023/03/08 02:41:20;;;;;;;8.23;3.13;;;;;;;4.19;100.00;96647.22;2549927;29;20059;-86
2023/03/08 02:42:36;;;;;;;6.03;3.00;;;;;;;4.23;98.73;96653.16;2551751;29;20044;-85
2023/03/08 02:43:52;;;;;;;6.57;3.30;;;;;;;4.20;98.48;96648.06;2551609;29;20052;-82
2023/03/08 02:45:08;;;;;;;7.13;3.35;;;;;;;4.33;99.39;96636.44;2549539;29;20130;-82
2023/03/08 02:46:23;;;;;;;6.95;3.70;;;;;;;4.23;99.46;96637.59;2552485;29;20491;-85
2023/03/08 02:47:40;;;;;;;5.43;3.15;;;;;;;4.32;98.17;96641.66;2550962;29;20052;-85
2023/03/08 02:48:56;;;;;;;5.38;2.92;;;;;;;4.37;96.81;96647.50;2551467;29;20052;-82
2023/03/08 02:50:11;;;;;;;5.57;2.53;;;;;;;4.29;97.19;96639.16;2552280;28;20623;-82
2023/03/08 02:51:27;;;;;;;5.32;3.45;;;;;;;4.23;98.68;96650.56;2550837;29;20055;-83
2023/03/08 02:52:42;;;;;;;7.85;3.55;;;;;;;4.40;97.45;96656.94;2550131;29;20047;-83
2023/03/08 02:53:58;;;;;;;11.48;4.47;;;;;;;4.56;95.43;96645.19;2550121;28;20489;-82
2023/03/08 02:55:14;;;;;;;6.53;3.63;;;;;;;4.45;95.14;96647.25;2551328;29;21065;-82
2023/03/08 02:56:30;;;;;;;4.90;3.03;;;;;;;4.32;97.36;96652.00;2549322;29;20047;-83
2023/03/08 02:57:45;;;;;;;7.93;3.03;;;;;;;4.48;95.78;96645.44;2551776;29;20051;-86
2023/03/08 02:59:02;;;;;;;5.95;3.10;;;;;;;4.52;95.21;96649.59;2551216;29;20159;-82
2023/03/08 03:00:18;;;;;;;6.88;2.97;;;;;;;4.51;95.85;96642.72;2549824;29;20055;-82
2023/03/08 03:01:34;;;;;;;8.48;2.85;;;;;;;4.49;94.19;96648.88;2550860;29;20051;-84
2023/03/08 03:02:50;;;;;;;9.50;3.38;;;;;;;4.45;95.74;96647.25;2549640;29;20130;-85
2023/03/08 03:04:05;;;;;;;6.25;3.33;;;;;;;4.41;95.21;96649.13;2550640;29;20047;-84
2023/03/08 03:05:21;;;;;;;7.38;3.05;;;;;;;4.57;94.92;96646.88;2551846;29;20052;-84
2023/03/08 03:06:37;;;;;;;6.10;2.47;;;;;;;4.57;94.35;96646.03;2550278;29;20094;-82
2023/03/08 03:07:54;;;;;;;7.95;3.83;;;;;;;4.44;94.57;96655.94;2552215;29;20058;-82
2023/03/08 03:09:10;;;;;;;6.35;3.80;;;;;;;4.52;95.06;96641.00;2549989;29;20056;-83
2023/03/08 03:10:26;;;;;;;9.80;3.08;;;;;;;4.46;94.86;96647.22;2548902;29;20524;-83
2023/03/08 03:11:42;;;;;;;7.05;3.42;;;;;;;4.53;94.55;96650.47;2549640;29;20107;-83
2023/03/08 03:12:57;;;;;;;14.20;4.00;;;;;;;4.63;94.69;96654.47;2549240;29;20056;-83
2023/03/08 03:14:13;;;;;;;8.23;3.15;;;;;;;4.58;94.73;96652.91;2550596;29;20465;-83
2023/03/08 03:15:29;;;;;;;5.28;3.63;;;;;;;4.44;96.13;96653.34;2551131;29;20067;-83
2023/03/08 03:16:45;;;;;;;7.03;3.50;;;;;;;4.59;94.39;96657.19;2549193;29;20753;-88
2023/03/08 03:18:01;;;;;;;7.75;3.60;;;;;;;4.68;93.78;96658.63;2552997;29;20090;-82
2023/03/08 03:19:16;;;;;;;6.85;3.20;;;;;;;4.56;93.93;96657.31;2552480;29;20578;-83
2023/03/08 03:20:32;;;;;;;6.70;3.80;;;;;;;4.60;93.81;96653.69;2551998;29;20150;-82
2023/03/08 03:21:48;;;;;;;6.78;3.08;;;;;;;4.69;92.63;96655.13;2553254;29;20139;-84
2023/03/08 03:23:05;;;;;;;6.07;3.45;;;;;;;4.75;92.96;96665.28;2552261;29;20483;-83
2023/03/08 03:24:20;;;;;;;8.25;3.88;;;;;;;4.70;93.54;96660.28;2550987;29;20062;-82
2023/03/08 03:25:37;;;;;;;6.93;3.30;;;;;;;4.70;93.13;96660.28;2552533;29;20055;-82
2023/03/08 03:26:52;;;;;;;4.28;2.55;;;;;;;4.62;93.34;96654.50;2552921;29;20114;-83
2023/03/08 03:28:08;;;;;;;5.70;3.10;;;;;;;4.71;93.61;96661.13;2551707;29;20146;-83
2023/03/08 03:29:24;;;;;;;5.05;2.85;;;;;;;4.71;92.36;96658.53;2553337;29;20055;-82
2023/03/08 03:30:39;;;;;;;7.80;3.30;;;;;;;4.69;92.02;96662.91;2551560;29;20055;-84
2023/03/08 03:31:55;;;;;;;6.60;3.05;;;;;;;4.59;93.56;96663.22;2552354;29;20144;-82
2023/03/08 03:33:11;;;;;;;5.88;2.70;;;;;;;4.59;93.56;96670.16;2553449;29;20082;-82
2023/03/08 03:34:26;;;;;;;7.00;3.67;;;;;;;4.58;93.56;96666.69;2553438;29;20051;-82
2023/03/08 03:35:42;;;;;;;6.20;3.42;;;;;;;4.55;93.86;96671.16;2552103;29;20079;-81
2023/03/08 03:36:57;;;;;;;5.60;3.20;;;;;;;4.62;93.24;96672.63;2552816;29;20146;-82
2023/03/08 03:38:13;;;;;;;7.38;2.83;;;;;;;4.77;91.67;96668.72;2553042;29;20059;-84
2023/03/08 03:39:33;;;;;;;5.38;3.63;;;;;;;4.69;92.43;96666.38;2552032;29;20051;-82
2023/03/08 03:40:49;;;;;;;6.70;3.35;;;;;;;4.65;92.67;96669.94;2552817;29;20153;-82
2023/03/08 03:42:08;;;;;;;6.75;3.70;;;;;;;4.73;92.50;96677.47;2552353;29;20047;-82
2023/03/08 03:43:23;;;;;;;4.78;2.65;;;;;;;4.74;92.22;96685.19;2553274;29;20055;-82
2023/03/08 03:44:39;;;;;;;5.55;2.97;;;;;;;4.58;92.44;96681.41;2553338;29;20055;-85
2023/03/08 03:46:00;;;;;;;9.80;3.20;;;;;;;4.69;92.05;96681.06;2551752;29;20418;-84
2023/03/08 03:47:15;;;;;;;7.90;3.85;;;;;;;4.74;92.31;96684.34;2552587;29;20074;-83
2023/03/08 03:48:33;;;;;;;9.77;3.38;;;;;;;4.87;90.56;96695.16;2550961;29;20056;-82
2023/03/08 03:49:49;;;;;;;5.65;3.00;;;;;;;4.84;90.91;96685.75;2552087;29;20498;-83
2023/03/08 03:51:08;;;;;;;7.20;4.10;;;;;;;4.79;91.34;96685.06;2551904;29;20082;-84
2023/03/08 03:52:23;;;;;;;6.80;3.30;;;;;;;4.70;91.92;96690.53;2552708;28;20075;-82
2023/03/08 03:53:40;;;;;;;6.90;3.53;;;;;;;4.69;92.05;96687.09;2552678;29;20952;-86
2023/03/08 03:54:55;;;;;;;7.07;3.40;;;;;;;4.84;89.88;96683.16;2551984;29;20059;-83
2023/03/08 03:56:15;;;;;;;5.28;3.17;;;;;;;4.95;87.92;96678.44;2552976;29;20433;-84
2023/03/08 03:57:30;;;;;;;5.40;2.85;;;;;;;4.79;90.66;96672.09;2552467;29;20058;-82
2023/03/08 03:58:47;;;;;;;8.68;4.05;;;;;;;4.77;91.55;96673.88;2552705;29;20134;-82
2023/03/08 04:00:04;;;;;;;7.03;3.83;;;;;;;4.75;90.42;96675.66;2551485;29;20384;-83
2023/03/08 04:01:25;;;;;;;7.10;3.55;;;;;;;4.84;89.32;96675.38;2551772;29;20063;-83
2023/03/08 04:02:41;;;;;;;4.35;2.85;;;;;;;4.84;89.01;96669.34;2550834;29;20100;-82
2023/03/08 04:03:57;;;;;;;8.40;4.15;;;;;;;4.95;88.34;96669.81;2550673;28;20052;-83
2023/03/08 04:05:13;;;;;;;6.20;3.45;;;;;;;4.84;88.83;96674.53;2553396;29;20061;-82
2023/03/08 04:06:31;;;;;;;9.38;4.93;;;;;;;4.86;89.35;96668.38;2551751;29;20059;-82
2023/03/08 04:07:46;;;;;;;10.88;4.97;;;;;;;5.05;87.17;96671.19;2552290;29;20105;-81
2023/03/08 04:09:11;;;;;;;9.65;4.63;;;;;;;4.94;87.60;96686.28;2553287;29;20106;-82
2023/03/08 04:10:27;;;;;;;8.25;4.25;;;;;;;4.92;89.89;96691.53;2551008;29;20475;-81
2023/03/08 04:11:43;;;;;;;8.23;3.78;;;;;;;4.83;89.96;96683.22;2550995;29;20510;-82
2023/03/08 04:12:58;;;;;;;6.20;2.90;;;;;;;4.63;91.47;96689.88;2553611;29;20059;-83
2023/03/08 04:14:14;;;;;;;8.02;4.32;;;;;;;4.91;90.32;96687.25;2550478;29;20453;-82
2023/03/08 04:15:30;;;;;;;7.40;4.10;;;;;;;4.74;90.90;96686.94;2552087;29;20106;-84
2023/03/08 04:16:45;;;;;;;8.48;4.20;;;;;;;4.95;88.40;96690.56;2553104;29;20566;-83
2023/03/08 04:18:01;;;;;;;6.93;4.05;;;;;;;4.97;88.46;96696.56;2552906;29;20077;-83
2023/03/08 04:19:16;;;;;;;7.07;4.03;;;;;;;4.90;89.16;96698.50;2550461;29;20048;-82
2023/03/08 04:20:32;;;;;;;10.88;4.95;;;;;;;4.92;89.78;96704.50;2552758;29;20078;-82
2023/03/08 04:21:48;;;;;;;8.00;3.20;;;;;;;4.83;90.73;96702.19;2551156;29;20105;-82
2023/03/08 04:23:03;;;;;;;5.78;3.35;;;;;;;4.74;90.97;96699.91;2550289;29;20491;-85
2023/03/08 04:24:19;;;;;;;6.57;3.10;;;;;;;4.69;91.87;96700.06;2552450;29;20048;-84
2023/03/08 04:25:34;;;;;;;9.30;4.28;;;;;;;4.95;89.03;96694.00;2540986;29;20052;-82
2023/03/08 04:26:50;;;;;;;10.73;4.57;;;;;;;4.84;89.91;96700.47;2545494;29;20784;-82
2023/03/08 04:28:06;;;;;;;7.85;4.20;;;;;;;4.82;89.59;96703.09;2551656;29;20541;-84
2023/03/08 04:29:21;;;;;;;9.00;4.50;;;;;;;4.98;88.62;96692.22;2549827;29;20051;-83
2023/03/08 04:30:37;;;;;;;8.95;3.67;;;;;;;4.59;89.93;96694.31;2551552;28;20058;-83
2023/03/08 04:31:57;;;;;;;8.57;4.18;;;;;;;4.75;89.86;96694.66;2553189;29;20052;-82
2023/03/08 04:33:12;;;;;;;8.15;4.00;;;;;;;4.69;90.19;96696.63;2540239;29;20083;-83
2023/03/08 04:34:28;;;;;;;8.63;4.80;;;;;;;4.80;89.49;96691.94;2545568;29;20051;-83
2023/03/08 04:35:43;;;;;;;5.95;3.40;;;;;;;4.60;89.04;96693.41;2552367;29;20055;-82
2023/03/08 04:36:59;;;;;;;6.30;3.53;;;;;;;4.83;88.26;96689.22;2552097;29;20059;-82
2023/03/08 04:38:15;;;;;;;11.65;4.68;;;;;;;4.73;88.63;96691.28;2550949;29;20050;-83
2023/03/08 04:39:31;;;;;;;9.50;3.70;;;;;;;4.79;90.40;96693.66;2550807;29;20060;-83
2023/03/08 04:41:04;;;;;;;9.48;4.32;;;;;;;4.78;89.78;96696.31;2551370;29;20059;-82
2023/03/08 04:42:20;;;;;;;13.48;4.70;;;;;;;4.86;89.68;96694.31;2552166;29;20131;-83
2023/03/08 04:43:36;;;;;;;10.23;4.53;;;;;;;4.84;89.03;96703.88;2551848;29;20220;-82
2023/03/08 04:44:51;;;;;;;6.13;3.33;;;;;;;4.68;91.38;96694.94;2552245;29;20065;-83
2023/03/08 04:46:07;;;;;;;9.95;4.43;;;;;;;4.83;90.14;96699.59;2553454;29;20805;-82
2023/03/08 04:47:23;;;;;;;7.90;3.42;;;;;;;4.52;91.79;96698.00;2540264;29;20147;-82
2023/03/08 04:48:38;;;;;;;10.05;4.13;;;;;;;4.63;91.26;96698.53;2545812;29;20078;-83
2023/03/08 04:49:54;;;;;;;6.03;2.95;;;;;;;4.46;90.48;96691.28;2551198;29;20083;-83
2023/03/08 04:51:11;;;;;;;8.48;4.47;;;;;;;4.70;90.50;96693.97;2550258;29;20057;-83
2023/03/08 04:52:27;;;;;;;5.72;2.72;;;;;;;4.67;90.47;96688.88;2550719;29;20051;-82
2023/03/08 04:53:44;;;;;;;9.32;4.57;;;;;;;4.74;90.50;96690.38;2551612;29;20109;-82
2023/03/08 04:54:59;;;;;;;9.13;3.83;;;;;;;4.75;89.96;96699.00;2551681;29;20487;-83
2023/03/08 04:56:16;;;;;;;7.72;4.35;;;;;;;4.73;89.54;96698.19;2551211;29;20062;-82
2023/03/08 04:57:33;;;;;;;6.97;4.05;;;;;;;4.83;89.44;96694.41;2551747;29;20059;-84
2023/03/08 04:58:49;;;;;;;7.57;3.80;;;;;;;4.86;88.97;96689.13;2549988;29;20134;-82
2023/03/08 05:00:05;;;;;;;9.23;4.25;;;;;;;4.73;90.19;96693.88;2551950;29;20051;-82
2023/03/08 05:01:22;;;;;;;8.35;4.10;;;;;;;4.86;88.78;96689.13;2550875;28;20059;-85
2023/03/08 05:02:37;;;;;;;8.45;4.22;;;;;;;4.81;88.58;96691.88;2550283;29;20055;-82
2023/03/08 05:03:53;;;;;;;5.30;3.00;;;;;;;4.77;89.64;96689.44;2551582;29;20093;-82
2023/03/08 05:05:09;;;;;;;9.57;4.15;;;;;;;4.77;89.86;96684.25;2550957;29;20056;-82
2023/03/08 05:06:26;;;;;;;9.57;4.80;;;;;;;4.93;88.05;96685.44;2553077;29;20047;-83
2023/03/08 05:07:41;;;;;;;6.10;3.42;;;;;;;4.90;87.92;96682.97;2550191;29;20082;-82
2023/03/08 05:08:57;;;;;;;9.45;3.40;;;;;;;4.81;86.82;96681.50;2551353;29;20058;-83
2023/03/08 05:10:12;;;;;;;8.77;3.70;;;;;;;4.70;88.14;96683.63;2551891;29;20264;-87
2023/03/08 05:11:28;;;;;;;5.80;2.90;;;;;;;4.63;89.11;96693.34;2552575;28;20510;-83
2023/03/08 05:12:44;;;;;;;9.27;4.15;;;;;;;4.74;87.76;96680.00;2551771;29;20059;-83
2023/03/08 05:13:59;;;;;;;4.68;2.90;;;;;;;4.59;90.95;96681.34;2552132;29;20047;-82
2023/03/08 05:15:15;;;;;;;6.65;2.75;;;;;;;4.61;90.32;96677.00;2550657;29;20063;-82
2023/03/08 05:16:31;;;;;;;6.53;3.63;;;;;;;4.77;89.60;96681.66;2551106;29;20644;-82
2023/03/08 05:17:46;;;;;;;10.88;3.85;;;;;;;4.73;89.28;96680.91;2552516;28;20083;-83
2023/03/08 05:19:02;;;;;;;8.23;3.97;;;;;;;4.69;89.30;96688.84;2551156;29;20060;-82
2023/03/08 05:20:18;;;;;;;6.80;4.20;;;;;;;4.79;88.66;96685.06;2552243;29;20080;-83
2023/03/08 05:21:33;;;;;;;6.93;3.50;;;;;;;4.74;88.53;96686.94;2552069;29;20059;-82
2023/03/08 05:22:49;;;;;;;7.75;3.97;;;;;;;4.78;88.13;96691.97;2551387;29;20051;-85
2023/03/08 05:24:05;;;;;;;9.70;4.00;;;;;;;4.84;87.13;96682.31;2552302;29;20059;-82
2023/03/08 05:25:21;;;;;;;6.97;4.22;;;;;;;4.82;88.83;96690.13;2551961;29;20046;-86
2023/03/08 05:26:37;;;;;;;8.27;4.68;;;;;;;4.88;88.72;96691.69;2550878;29;20119;-83
2023/03/08 05:27:53;;;;;;;7.07;4.00;;;;;;;4.83;87.84;96691.00;2551619;29;20055;-83
2023/03/08 05:29:08;;;;;;;7.97;3.83;;;;;;;4.71;89.26;96690.50;2551640;29;20078;-86
2023/03/08 05:30:25;;;;;;;9.40;4.47;;;;;;;4.87;88.52;96695.16;2549481;29;20059;-82
2023/03/08 05:31:43;;;;;;;8.32;4.15;;;;;;;4.77;87.84;96689.44;2552409;29;20050;-82
2023/03/08 05:32:59;;;;;;;11.93;4.65;;;;;;;4.89;87.46;96694.22;2549945;29;20056;-82
2023/03/08 05:34:14;;;;;;;7.72;3.90;;;;;;;4.89;87.01;96702.00;2550001;29;20623;-82
2023/03/08 05:35:30;;;;;;;7.88;4.15;;;;;;;4.84;88.70;96697.88;2552328;29;20075;-82
2023/03/08 05:36:45;;;;;;;7.35;4.30;;;;;;;4.86;86.14;96709.03;2551069;29;20059;-84
2023/03/08 05:38:01;;;;;;;7.93;3.70;;;;;;;4.66;88.59;96697.56;2552240;29;20056;-82
2023/03/08 05:39:16;;;;;;;7.57;3.97;;;;;;;4.63;88.96;96695.94;2551359;29;20114;-83
2023/03/08 05:40:32;;;;;;;5.55;2.85;;;;;;;4.57;88.85;96701.28;2550993;28;20083;-82
2023/03/08 05:41:48;;;;;;;5.38;2.35;;;;;;;4.61;88.29;96708.09;2550412;29;20114;-86
2023/03/08 05:43:03;;;;;;;6.50;3.83;;;;;;;4.62;88.24;96714.97;2550962;29;20146;-83
2023/03/08 05:44:19;;;;;;;7.07;3.83;;;;;;;4.65;87.86;96725.25;2550832;29;20051;-81
2023/03/08 05:45:34;;;;;;;6.43;3.58;;;;;;;4.62;88.84;96724.47;2550790;29;20054;-82
2023/03/08 05:46:51;;;;;;;7.13;3.30;;;;;;;4.54;88.52;96727.31;2551296;29;20570;-82
2023/03/08 05:48:07;;;;;;;6.60;3.47;;;;;;;4.38;90.00;96725.22;2550140;29;20574;-83
2023/03/08 05:49:22;;;;;;;6.22;3.38;;;;;;;4.53;90.31;96726.44;2551777;29;20052;-83
2023/03/08 05:50:38;;;;;;;10.45;3.78;;;;;;;4.61;87.77;96723.66;2550869;29;20472;-84
2023/03/08 05:51:54;;;;;;;8.45;4.20;;;;;;;4.76;88.59;96724.06;2550550;28;20051;-82
2023/03/08 05:53:09;;;;;;;6.40;3.33;;;;;;;4.79;87.76;96721.34;2551515;28;20081;-82
2023/03/08 05:54:25;;;;;;;7.20;3.78;;;;;;;4.79;87.72;96723.94;2550892;29;20044;-82
2023/03/08 05:55:40;;;;;;;8.65;4.38;;;;;;;4.68;89.15;96726.03;2549782;29;20135;-82
2023/03/08 05:56:56;;;;;;;7.68;3.78;;;;;;;4.61;88.52;96728.84;2551129;29;20607;-82
2023/03/08 05:58:12;;;;;;;8.80;3.75;;;;;;;4.62;89.36;96729.66;2550023;29;20484;-87
2023/03/08 05:59:27;;;;;;;9.35;4.82;;;;;;;4.65;88.44;96727.84;2549424;29;20429;-83
2023/03/08 06:00:43;;;;;;;8.20;4.47;;;;;;;4.62;88.06;96730.53;2549670;28;20059;-82
2023/03/08 06:01:59;;;;;;;9.52;4.45;;;;;;;4.74;88.68;96738.78;2550646;29;20051;-82
2023/03/08 06:03:15;;;;;;;8.85;4.50;;;;;;;4.61;88.42;96723.66;2550114;29;20071;-82